sensor_id;sensor_type;location;lat;lon;timestamp;P1;durP1;ratioP1;P2;durP2;ratioP2
54923;SDS011;40825;52.270;20.984;2022-11-11T00:03:47;22.70;;;12.00;;
54923;SDS011;40825;52.270;20.984;2022-11-11T00:06:14;21.30;;;13.70;;
54923;SDS011;40825;52.270;20.984;2022-11-11T00:08:40;21.50;;;12.40;;
54923;SDS011;40825;52.270;20.984;2022-11-11T00:11:07;20.80;;;13.40;;
54923;SDS011;40825;52.270;20.984;2022-11-11T00:13:35;20.70;;;10.80;;
54923;SDS011;40825;52.270;20.984;2022-11-11T00:16:06;21.20;;;11.30;;
54923;SDS011;40825;52.270;20.984;2022-11-11T00:18:33;25.30;;;13.90;;
54923;SDS011;40825;52.270;20.984;2022-11-11T00:21:18;19.60;;;11.50;;
54923;SDS011;40825;52.270;20.984;2022-11-11T00:24:12;18.70;;;11.80;;
54923;SDS011;40825;52.270;20.984;2022-11-11T00:27:04;22.60;;;12.20;;
54923;SDS011;40825;52.270;20.984;2022-11-11T00:29:30;22.40;;;12.00;;
54923;SDS011;40825;52.270;20.984;2022-11-11T00:31:55;22.20;;;11.60;;
54923;SDS011;40825;52.270;20.984;2022-11-11T00:34:40;18.80;;;11.60;;
54923;SDS011;40825;52.270;20.984;2022-11-11T00:37:25;23.30;;;13.60;;
54923;SDS011;40825;52.270;20.984;2022-11-11T00:39:50;24.10;;;13.00;;
54923;SDS011;40825;52.270;20.984;2022-11-11T00:42:16;21.80;;;12.10;;
54923;SDS011;40825;52.270;20.984;2022-11-11T00:44:42;21.80;;;13.10;;
54923;SDS011;40825;52.270;20.984;2022-11-11T00:47:07;21.70;;;12.20;;
54923;SDS011;40825;52.270;20.984;2022-11-11T00:49:52;20.40;;;11.80;;
54923;SDS011;40825;52.270;20.984;2022-11-11T00:52:36;24.20;;;13.10;;
54923;SDS011;40825;52.270;20.984;2022-11-11T00:55:02;21.80;;;13.00;;
54923;SDS011;40825;52.270;20.984;2022-11-11T00:57:27;21.80;;;12.00;;
54923;SDS011;40825;52.270;20.984;2022-11-11T00:59:52;22.50;;;11.50;;
54923;SDS011;40825;52.270;20.984;2022-11-11T01:02:18;21.50;;;11.70;;
54923;SDS011;40825;52.270;20.984;2022-11-11T01:04:43;18.20;;;10.30;;
54923;SDS011;40825;52.270;20.984;2022-11-11T01:07:09;24.00;;;12.70;;
54923;SDS011;40825;52.270;20.984;2022-11-11T01:09:34;22.80;;;13.20;;
54923;SDS011;40825;52.270;20.984;2022-11-11T01:12:00;21.90;;;11.80;;
54923;SDS011;40825;52.270;20.984;2022-11-11T01:14:25;26.70;;;13.90;;
54923;SDS011;40825;52.270;20.984;2022-11-11T01:16:50;24.20;;;12.40;;
54923;SDS011;40825;52.270;20.984;2022-11-11T01:19:16;20.10;;;10.90;;
54923;SDS011;40825;52.270;20.984;2022-11-11T01:21:41;21.90;;;12.40;;
54923;SDS011;40825;52.270;20.984;2022-11-11T01:24:07;22.50;;;12.00;;
54923;SDS011;40825;52.270;20.984;2022-11-11T01:26:32;25.90;;;12.60;;
54923;SDS011;40825;52.270;20.984;2022-11-11T01:28:57;24.00;;;12.30;;
54923;SDS011;40825;52.270;20.984;2022-11-11T01:31:24;25.00;;;12.70;;
54923;SDS011;40825;52.270;20.984;2022-11-11T01:33:50;21.20;;;11.40;;
54923;SDS011;40825;52.270;20.984;2022-11-11T01:36:17;21.20;;;11.60;;
54923;SDS011;40825;52.270;20.984;2022-11-11T01:38:49;22.90;;;11.00;;
54923;SDS011;40825;52.270;20.984;2022-11-11T01:41:17;20.80;;;10.70;;
54923;SDS011;40825;52.270;20.984;2022-11-11T01:46:39;22.90;;;12.00;;
54923;SDS011;40825;52.270;20.984;2022-11-11T01:49:14;22.10;;;11.90;;
54923;SDS011;40825;52.270;20.984;2022-11-11T01:54:58;22.30;;;10.50;;
54923;SDS011;40825;52.270;20.984;2022-11-11T01:59:54;22.10;;;11.90;;
54923;SDS011;40825;52.270;20.984;2022-11-11T02:02:30;18.40;;;10.70;;
54923;SDS011;40825;52.270;20.984;2022-11-11T02:05:02;25.00;;;12.20;;
54923;SDS011;40825;52.270;20.984;2022-11-11T02:07:48;23.40;;;12.60;;
54923;SDS011;40825;52.270;20.984;2022-11-11T02:10:15;23.20;;;11.80;;
54923;SDS011;40825;52.270;20.984;2022-11-11T02:12:43;23.30;;;11.90;;
54923;SDS011;40825;52.270;20.984;2022-11-11T02:15:27;21.20;;;11.30;;
54923;SDS011;40825;52.270;20.984;2022-11-11T02:17:52;22.20;;;10.80;;
54923;SDS011;40825;52.270;20.984;2022-11-11T02:20:19;21.60;;;10.90;;
54923;SDS011;40825;52.270;20.984;2022-11-11T02:22:55;20.20;;;10.70;;
54923;SDS011;40825;52.270;20.984;2022-11-11T02:25:26;20.50;;;10.40;;
54923;SDS011;40825;52.270;20.984;2022-11-11T02:27:56;21.60;;;11.60;;
54923;SDS011;40825;52.270;20.984;2022-11-11T02:30:25;21.10;;;10.70;;
54923;SDS011;40825;52.270;20.984;2022-11-11T02:32:52;22.30;;;11.00;;
54923;SDS011;40825;52.270;20.984;2022-11-11T02:35:19;21.90;;;11.20;;
54923;SDS011;40825;52.270;20.984;2022-11-11T02:37:48;21.10;;;12.30;;
54923;SDS011;40825;52.270;20.984;2022-11-11T02:40:25;22.10;;;11.20;;
54923;SDS011;40825;52.270;20.984;2022-11-11T02:42:55;23.80;;;11.60;;
54923;SDS011;40825;52.270;20.984;2022-11-11T02:45:20;21.00;;;11.10;;
54923;SDS011;40825;52.270;20.984;2022-11-11T02:47:46;21.40;;;10.80;;
54923;SDS011;40825;52.270;20.984;2022-11-11T02:50:11;19.80;;;11.30;;
54923;SDS011;40825;52.270;20.984;2022-11-11T02:52:36;19.60;;;10.00;;
54923;SDS011;40825;52.270;20.984;2022-11-11T02:55:02;18.70;;;10.30;;
54923;SDS011;40825;52.270;20.984;2022-11-11T02:57:28;21.70;;;10.30;;
54923;SDS011;40825;52.270;20.984;2022-11-11T02:59:54;21.50;;;10.70;;
54923;SDS011;40825;52.270;20.984;2022-11-11T03:02:22;18.00;;;9.90;;
54923;SDS011;40825;52.270;20.984;2022-11-11T03:04:52;19.80;;;9.60;;
54923;SDS011;40825;52.270;20.984;2022-11-11T03:07:19;23.90;;;11.70;;
54923;SDS011;40825;52.270;20.984;2022-11-11T03:09:45;23.00;;;9.70;;
54923;SDS011;40825;52.270;20.984;2022-11-11T03:12:10;17.50;;;9.90;;
54923;SDS011;40825;52.270;20.984;2022-11-11T03:14:35;23.50;;;11.30;;
54923;SDS011;40825;52.270;20.984;2022-11-11T03:17:01;17.50;;;8.80;;
54923;SDS011;40825;52.270;20.984;2022-11-11T03:19:45;17.00;;;10.80;;
54923;SDS011;40825;52.270;20.984;2022-11-11T03:22:10;19.10;;;10.40;;
54923;SDS011;40825;52.270;20.984;2022-11-11T03:24:36;20.50;;;10.20;;
54923;SDS011;40825;52.270;20.984;2022-11-11T03:27:20;19.90;;;9.70;;
54923;SDS011;40825;52.270;20.984;2022-11-11T03:29:45;21.90;;;11.80;;
54923;SDS011;40825;52.270;20.984;2022-11-11T03:32:11;17.80;;;8.90;;
54923;SDS011;40825;52.270;20.984;2022-11-11T03:34:36;24.10;;;11.20;;
54923;SDS011;40825;52.270;20.984;2022-11-11T03:37:02;17.30;;;8.80;;
54923;SDS011;40825;52.270;20.984;2022-11-11T03:39:48;19.50;;;10.00;;
54923;SDS011;40825;52.270;20.984;2022-11-11T03:42:13;21.90;;;11.10;;
54923;SDS011;40825;52.270;20.984;2022-11-11T03:44:39;18.00;;;9.30;;
54923;SDS011;40825;52.270;20.984;2022-11-11T03:47:04;17.70;;;9.20;;
54923;SDS011;40825;52.270;20.984;2022-11-11T03:49:30;20.50;;;9.10;;
54923;SDS011;40825;52.270;20.984;2022-11-11T03:51:55;19.30;;;10.00;;
54923;SDS011;40825;52.270;20.984;2022-11-11T03:54:21;20.90;;;9.60;;
54923;SDS011;40825;52.270;20.984;2022-11-11T03:56:46;17.60;;;9.60;;
54923;SDS011;40825;52.270;20.984;2022-11-11T03:59:11;19.70;;;10.50;;
54923;SDS011;40825;52.270;20.984;2022-11-11T04:01:37;17.50;;;9.50;;
54923;SDS011;40825;52.270;20.984;2022-11-11T04:04:21;16.90;;;9.00;;
54923;SDS011;40825;52.270;20.984;2022-11-11T04:07:06;24.70;;;10.20;;
54923;SDS011;40825;52.270;20.984;2022-11-11T04:09:52;18.40;;;10.00;;
54923;SDS011;40825;52.270;20.984;2022-11-11T04:12:36;20.50;;;9.50;;
54923;SDS011;40825;52.270;20.984;2022-11-11T04:15:23;21.90;;;9.70;;
54923;SDS011;40825;52.270;20.984;2022-11-11T04:18:07;17.90;;;9.20;;
54923;SDS011;40825;52.270;20.984;2022-11-11T04:20:33;16.40;;;8.90;;
54923;SDS011;40825;52.270;20.984;2022-11-11T04:23:17;18.10;;;8.70;;
54923;SDS011;40825;52.270;20.984;2022-11-11T04:25:43;15.90;;;8.90;;
54923;SDS011;40825;52.270;20.984;2022-11-11T04:28:14;19.90;;;8.90;;
54923;SDS011;40825;52.270;20.984;2022-11-11T04:30:59;16.80;;;8.70;;
54923;SDS011;40825;52.270;20.984;2022-11-11T04:33:24;16.70;;;9.40;;
54923;SDS011;40825;52.270;20.984;2022-11-11T04:35:50;17.50;;;8.60;;
54923;SDS011;40825;52.270;20.984;2022-11-11T04:38:15;18.30;;;10.00;;
54923;SDS011;40825;52.270;20.984;2022-11-11T04:40:59;17.30;;;8.70;;
54923;SDS011;40825;52.270;20.984;2022-11-11T04:43:30;19.70;;;8.40;;
54923;SDS011;40825;52.270;20.984;2022-11-11T04:45:59;19.40;;;9.30;;
54923;SDS011;40825;52.270;20.984;2022-11-11T04:48:25;16.30;;;8.50;;
54923;SDS011;40825;52.270;20.984;2022-11-11T04:50:51;16.00;;;8.60;;
54923;SDS011;40825;52.270;20.984;2022-11-11T04:53:17;15.80;;;8.40;;
54923;SDS011;40825;52.270;20.984;2022-11-11T04:55:43;15.70;;;9.10;;
54923;SDS011;40825;52.270;20.984;2022-11-11T04:58:29;15.20;;;8.00;;
54923;SDS011;40825;52.270;20.984;2022-11-11T05:00:56;19.70;;;9.10;;
54923;SDS011;40825;52.270;20.984;2022-11-11T05:03:21;16.60;;;9.30;;
54923;SDS011;40825;52.270;20.984;2022-11-11T05:08:39;17.60;;;7.90;;
54923;SDS011;40825;52.270;20.984;2022-11-11T05:11:22;17.20;;;8.10;;
54923;SDS011;40825;52.270;20.984;2022-11-11T05:13:52;22.70;;;9.20;;
54923;SDS011;40825;52.270;20.984;2022-11-11T05:16:45;16.90;;;8.10;;
54923;SDS011;40825;52.270;20.984;2022-11-11T05:19:30;16.80;;;7.60;;
54923;SDS011;40825;52.270;20.984;2022-11-11T05:22:15;14.40;;;8.40;;
54923;SDS011;40825;52.270;20.984;2022-11-11T05:24:54;15.60;;;8.20;;
54923;SDS011;40825;52.270;20.984;2022-11-11T05:27:39;16.30;;;8.00;;
54923;SDS011;40825;52.270;20.984;2022-11-11T05:30:06;14.80;;;7.60;;
54923;SDS011;40825;52.270;20.984;2022-11-11T05:32:33;18.40;;;7.30;;
54923;SDS011;40825;52.270;20.984;2022-11-11T05:34:59;16.70;;;8.90;;
54923;SDS011;40825;52.270;20.984;2022-11-11T05:37:24;18.40;;;9.00;;
54923;SDS011;40825;52.270;20.984;2022-11-11T05:39:50;16.60;;;8.20;;
54923;SDS011;40825;52.270;20.984;2022-11-11T05:42:15;19.70;;;9.10;;
54923;SDS011;40825;52.270;20.984;2022-11-11T05:44:41;20.00;;;8.30;;
54923;SDS011;40825;52.270;20.984;2022-11-11T05:47:06;15.00;;;8.00;;
54923;SDS011;40825;52.270;20.984;2022-11-11T05:49:32;19.70;;;9.30;;
54923;SDS011;40825;52.270;20.984;2022-11-11T05:51:57;15.70;;;8.70;;
54923;SDS011;40825;52.270;20.984;2022-11-11T05:54:23;16.90;;;8.30;;
54923;SDS011;40825;52.270;20.984;2022-11-11T05:56:49;16.50;;;8.00;;
54923;SDS011;40825;52.270;20.984;2022-11-11T05:59:15;13.50;;;7.10;;
54923;SDS011;40825;52.270;20.984;2022-11-11T06:01:40;16.30;;;7.70;;
54923;SDS011;40825;52.270;20.984;2022-11-11T06:04:06;16.60;;;8.10;;
54923;SDS011;40825;52.270;20.984;2022-11-11T06:06:33;13.70;;;6.80;;
54923;SDS011;40825;52.270;20.984;2022-11-11T06:08:59;15.50;;;7.30;;
54923;SDS011;40825;52.270;20.984;2022-11-11T06:11:24;14.20;;;6.50;;
54923;SDS011;40825;52.270;20.984;2022-11-11T06:13:52;16.10;;;7.40;;
54923;SDS011;40825;52.270;20.984;2022-11-11T06:16:18;18.30;;;8.20;;
54923;SDS011;40825;52.270;20.984;2022-11-11T06:18:43;11.90;;;5.90;;
54923;SDS011;40825;52.270;20.984;2022-11-11T06:21:08;18.10;;;8.30;;
54923;SDS011;40825;52.270;20.984;2022-11-11T06:23:34;18.60;;;8.10;;
54923;SDS011;40825;52.270;20.984;2022-11-11T06:26:00;16.80;;;8.20;;
54923;SDS011;40825;52.270;20.984;2022-11-11T06:28:41;16.10;;;7.50;;
54923;SDS011;40825;52.270;20.984;2022-11-11T06:31:09;15.80;;;6.90;;
54923;SDS011;40825;52.270;20.984;2022-11-11T06:33:36;17.60;;;8.10;;
54923;SDS011;40825;52.270;20.984;2022-11-11T06:36:03;16.10;;;7.80;;
54923;SDS011;40825;52.270;20.984;2022-11-11T06:38:29;15.10;;;9.30;;
54923;SDS011;40825;52.270;20.984;2022-11-11T06:40:55;13.60;;;7.20;;
54923;SDS011;40825;52.270;20.984;2022-11-11T06:43:21;17.30;;;7.20;;
54923;SDS011;40825;52.270;20.984;2022-11-11T06:45:50;16.70;;;6.80;;
54923;SDS011;40825;52.270;20.984;2022-11-11T06:48:17;14.80;;;7.90;;
54923;SDS011;40825;52.270;20.984;2022-11-11T06:50:42;15.60;;;7.70;;
54923;SDS011;40825;52.270;20.984;2022-11-11T06:53:09;17.40;;;6.80;;
54923;SDS011;40825;52.270;20.984;2022-11-11T06:55:36;11.10;;;6.30;;
54923;SDS011;40825;52.270;20.984;2022-11-11T06:58:15;13.10;;;6.70;;
54923;SDS011;40825;52.270;20.984;2022-11-11T07:00:43;15.60;;;7.80;;
54923;SDS011;40825;52.270;20.984;2022-11-11T07:03:10;14.20;;;6.30;;
54923;SDS011;40825;52.270;20.984;2022-11-11T07:05:37;16.00;;;7.00;;
54923;SDS011;40825;52.270;20.984;2022-11-11T07:08:03;12.80;;;6.00;;
54923;SDS011;40825;52.270;20.984;2022-11-11T07:10:31;14.70;;;6.50;;
54923;SDS011;40825;52.270;20.984;2022-11-11T07:12:58;11.70;;;6.20;;
54923;SDS011;40825;52.270;20.984;2022-11-11T07:15:23;17.30;;;6.90;;
54923;SDS011;40825;52.270;20.984;2022-11-11T07:17:49;16.50;;;7.00;;
54923;SDS011;40825;52.270;20.984;2022-11-11T07:20:14;13.80;;;6.50;;
54923;SDS011;40825;52.270;20.984;2022-11-11T07:22:40;13.00;;;6.10;;
54923;SDS011;40825;52.270;20.984;2022-11-11T07:25:05;13.10;;;6.40;;
54923;SDS011;40825;52.270;20.984;2022-11-11T07:27:31;14.70;;;6.70;;
54923;SDS011;40825;52.270;20.984;2022-11-11T07:30:00;15.60;;;6.80;;
54923;SDS011;40825;52.270;20.984;2022-11-11T07:32:26;12.70;;;6.10;;
54923;SDS011;40825;52.270;20.984;2022-11-11T07:34:51;12.10;;;6.20;;
54923;SDS011;40825;52.270;20.984;2022-11-11T07:37:17;13.50;;;6.20;;
54923;SDS011;40825;52.270;20.984;2022-11-11T07:39:42;13.90;;;5.90;;
54923;SDS011;40825;52.270;20.984;2022-11-11T07:42:07;15.10;;;6.60;;
54923;SDS011;40825;52.270;20.984;2022-11-11T07:44:33;13.30;;;6.00;;
54923;SDS011;40825;52.270;20.984;2022-11-11T07:46:58;14.30;;;7.20;;
54923;SDS011;40825;52.270;20.984;2022-11-11T07:49:23;16.50;;;6.50;;
54923;SDS011;40825;52.270;20.984;2022-11-11T07:51:49;13.50;;;6.10;;
54923;SDS011;40825;52.270;20.984;2022-11-11T07:54:14;13.70;;;6.30;;
54923;SDS011;40825;52.270;20.984;2022-11-11T07:56:40;12.10;;;5.50;;
54923;SDS011;40825;52.270;20.984;2022-11-11T07:59:05;9.50;;;5.00;;
54923;SDS011;40825;52.270;20.984;2022-11-11T08:01:30;13.30;;;6.30;;
54923;SDS011;40825;52.270;20.984;2022-11-11T08:03:56;13.50;;;6.80;;
54923;SDS011;40825;52.270;20.984;2022-11-11T08:06:21;16.40;;;7.20;;
54923;SDS011;40825;52.270;20.984;2022-11-11T08:08:47;12.90;;;5.30;;
54923;SDS011;40825;52.270;20.984;2022-11-11T08:11:14;13.30;;;6.00;;
54923;SDS011;40825;52.270;20.984;2022-11-11T08:13:40;16.30;;;5.80;;
54923;SDS011;40825;52.270;20.984;2022-11-11T08:16:12;13.80;;;6.10;;
54923;SDS011;40825;52.270;20.984;2022-11-11T08:18:39;13.80;;;6.80;;
54923;SDS011;40825;52.270;20.984;2022-11-11T08:21:06;13.20;;;6.50;;
54923;SDS011;40825;52.270;20.984;2022-11-11T08:23:32;18.50;;;7.80;;
54923;SDS011;40825;52.270;20.984;2022-11-11T08:26:03;15.70;;;7.30;;
54923;SDS011;40825;52.270;20.984;2022-11-11T08:28:30;10.80;;;5.80;;
54923;SDS011;40825;52.270;20.984;2022-11-11T08:30:57;12.80;;;6.20;;
54923;SDS011;40825;52.270;20.984;2022-11-11T08:33:24;10.90;;;5.40;;
54923;SDS011;40825;52.270;20.984;2022-11-11T08:35:50;20.30;;;6.70;;
54923;SDS011;40825;52.270;20.984;2022-11-11T08:38:18;12.70;;;6.70;;
54923;SDS011;40825;52.270;20.984;2022-11-11T08:40:44;13.00;;;6.20;;
54923;SDS011;40825;52.270;20.984;2022-11-11T08:43:10;11.60;;;5.40;;
54923;SDS011;40825;52.270;20.984;2022-11-11T08:45:35;15.30;;;6.70;;
54923;SDS011;40825;52.270;20.984;2022-11-11T08:48:01;15.40;;;6.80;;
54923;SDS011;40825;52.270;20.984;2022-11-11T08:50:26;11.00;;;5.90;;
54923;SDS011;40825;52.270;20.984;2022-11-11T08:52:52;14.80;;;5.90;;
54923;SDS011;40825;52.270;20.984;2022-11-11T08:55:17;13.40;;;6.60;;
54923;SDS011;40825;52.270;20.984;2022-11-11T08:57:44;12.00;;;5.80;;
54923;SDS011;40825;52.270;20.984;2022-11-11T09:00:10;14.90;;;6.40;;
54923;SDS011;40825;52.270;20.984;2022-11-11T09:02:37;13.80;;;5.70;;
54923;SDS011;40825;52.270;20.984;2022-11-11T09:05:03;15.10;;;5.80;;
54923;SDS011;40825;52.270;20.984;2022-11-11T09:07:29;14.50;;;6.40;;
54923;SDS011;40825;52.270;20.984;2022-11-11T09:09:55;12.70;;;6.20;;
54923;SDS011;40825;52.270;20.984;2022-11-11T09:12:20;15.30;;;6.90;;
54923;SDS011;40825;52.270;20.984;2022-11-11T09:14:45;13.10;;;6.70;;
54923;SDS011;40825;52.270;20.984;2022-11-11T09:17:12;13.30;;;6.30;;
54923;SDS011;40825;52.270;20.984;2022-11-11T09:19:37;14.70;;;7.30;;
54923;SDS011;40825;52.270;20.984;2022-11-11T09:22:03;10.80;;;5.90;;
54923;SDS011;40825;52.270;20.984;2022-11-11T09:24:29;14.40;;;7.00;;
54923;SDS011;40825;52.270;20.984;2022-11-11T09:26:54;10.30;;;5.50;;
54923;SDS011;40825;52.270;20.984;2022-11-11T09:29:19;11.70;;;6.40;;
54923;SDS011;40825;52.270;20.984;2022-11-11T09:31:45;15.90;;;6.80;;
54923;SDS011;40825;52.270;20.984;2022-11-11T09:34:11;13.30;;;6.80;;
54923;SDS011;40825;52.270;20.984;2022-11-11T09:36:37;12.60;;;5.40;;
54923;SDS011;40825;52.270;20.984;2022-11-11T09:39:03;12.20;;;6.10;;
54923;SDS011;40825;52.270;20.984;2022-11-11T09:44:02;13.80;;;6.60;;
54923;SDS011;40825;52.270;20.984;2022-11-11T09:46:35;16.80;;;7.50;;
54923;SDS011;40825;52.270;20.984;2022-11-11T09:55:11;12.10;;;5.80;;
54923;SDS011;40825;52.270;20.984;2022-11-11T09:57:50;13.10;;;5.90;;
54923;SDS011;40825;52.270;20.984;2022-11-11T10:00:23;16.60;;;6.20;;
54923;SDS011;40825;52.270;20.984;2022-11-11T10:11:04;12.80;;;6.50;;
54923;SDS011;40825;52.270;20.984;2022-11-11T10:21:52;14.00;;;6.70;;
54923;SDS011;40825;52.270;20.984;2022-11-11T10:24:25;11.50;;;5.80;;
54923;SDS011;40825;52.270;20.984;2022-11-11T10:26:53;12.80;;;6.30;;
54923;SDS011;40825;52.270;20.984;2022-11-11T10:29:20;12.20;;;5.90;;
54923;SDS011;40825;52.270;20.984;2022-11-11T10:31:52;11.90;;;5.90;;
54923;SDS011;40825;52.270;20.984;2022-11-11T10:34:25;10.80;;;5.40;;
54923;SDS011;40825;52.270;20.984;2022-11-11T10:36:57;14.50;;;6.50;;
54923;SDS011;40825;52.270;20.984;2022-11-11T10:39:31;13.30;;;6.80;;
54923;SDS011;40825;52.270;20.984;2022-11-11T10:42:12;12.40;;;5.80;;
54923;SDS011;40825;52.270;20.984;2022-11-11T10:44:42;14.70;;;6.50;;
54923;SDS011;40825;52.270;20.984;2022-11-11T10:47:10;12.90;;;6.00;;
54923;SDS011;40825;52.270;20.984;2022-11-11T10:49:38;12.80;;;5.90;;
54923;SDS011;40825;52.270;20.984;2022-11-11T10:52:09;15.20;;;5.80;;
54923;SDS011;40825;52.270;20.984;2022-11-11T10:55:05;12.00;;;5.80;;
54923;SDS011;40825;52.270;20.984;2022-11-11T11:00:14;12.40;;;5.30;;
54923;SDS011;40825;52.270;20.984;2022-11-11T11:05:29;12.30;;;5.00;;
54923;SDS011;40825;52.270;20.984;2022-11-11T11:08:01;13.40;;;6.00;;
54923;SDS011;40825;52.270;20.984;2022-11-11T11:10:39;14.20;;;7.10;;
54923;SDS011;40825;52.270;20.984;2022-11-11T11:13:14;14.10;;;6.80;;
54923;SDS011;40825;52.270;20.984;2022-11-11T11:15:43;11.20;;;6.20;;
54923;SDS011;40825;52.270;20.984;2022-11-11T11:18:14;15.30;;;6.50;;
54923;SDS011;40825;52.270;20.984;2022-11-11T11:20:55;11.80;;;5.30;;
54923;SDS011;40825;52.270;20.984;2022-11-11T11:23:36;14.80;;;6.10;;
54923;SDS011;40825;52.270;20.984;2022-11-11T11:26:02;14.50;;;6.30;;
54923;SDS011;40825;52.270;20.984;2022-11-11T11:28:29;12.20;;;5.90;;
54923;SDS011;40825;52.270;20.984;2022-11-11T11:31:14;14.30;;;6.40;;
54923;SDS011;40825;52.270;20.984;2022-11-11T11:33:48;12.10;;;6.00;;
54923;SDS011;40825;52.270;20.984;2022-11-11T11:36:20;12.70;;;5.50;;
54923;SDS011;40825;52.270;20.984;2022-11-11T11:38:47;11.80;;;5.30;;
54923;SDS011;40825;52.270;20.984;2022-11-11T11:41:17;12.10;;;5.30;;
54923;SDS011;40825;52.270;20.984;2022-11-11T11:44:00;13.50;;;5.20;;
54923;SDS011;40825;52.270;20.984;2022-11-11T11:46:27;11.10;;;5.10;;
54923;SDS011;40825;52.270;20.984;2022-11-11T11:49:16;12.60;;;5.80;;
54923;SDS011;40825;52.270;20.984;2022-11-11T11:54:55;14.40;;;5.30;;
54923;SDS011;40825;52.270;20.984;2022-11-11T12:00:23;14.00;;;5.90;;
54923;SDS011;40825;52.270;20.984;2022-11-11T12:06:01;11.00;;;5.00;;
54923;SDS011;40825;52.270;20.984;2022-11-11T12:11:17;9.90;;;5.30;;
54923;SDS011;40825;52.270;20.984;2022-11-11T12:17:18;10.60;;;5.00;;
54923;SDS011;40825;52.270;20.984;2022-11-11T12:28:42;10.60;;;4.10;;
54923;SDS011;40825;52.270;20.984;2022-11-11T12:33:52;11.00;;;4.60;;
54923;SDS011;40825;52.270;20.984;2022-11-11T12:36:28;11.20;;;4.90;;
54923;SDS011;40825;52.270;20.984;2022-11-11T12:45:00;12.00;;;4.10;;
54923;SDS011;40825;52.270;20.984;2022-11-11T12:50:46;10.50;;;3.90;;
54923;SDS011;40825;52.270;20.984;2022-11-11T12:53:32;11.40;;;3.60;;
54923;SDS011;40825;52.270;20.984;2022-11-11T13:02:01;13.30;;;3.80;;
54923;SDS011;40825;52.270;20.984;2022-11-11T13:04:51;10.60;;;3.80;;
54923;SDS011;40825;52.270;20.984;2022-11-11T13:10:26;7.40;;;3.40;;
54923;SDS011;40825;52.270;20.984;2022-11-11T13:15:47;11.00;;;4.00;;
54923;SDS011;40825;52.270;20.984;2022-11-11T13:18:23;9.50;;;3.70;;
54923;SDS011;40825;52.270;20.984;2022-11-11T13:21:15;11.20;;;3.70;;
54923;SDS011;40825;52.270;20.984;2022-11-11T13:23:45;11.40;;;3.50;;
54923;SDS011;40825;52.270;20.984;2022-11-11T13:26:53;9.10;;;3.50;;
54923;SDS011;40825;52.270;20.984;2022-11-11T13:29:16;11.30;;;3.80;;
54923;SDS011;40825;52.270;20.984;2022-11-11T13:32:02;8.20;;;3.40;;
54923;SDS011;40825;52.270;20.984;2022-11-11T13:34:34;9.90;;;4.60;;
54923;SDS011;40825;52.270;20.984;2022-11-11T13:37:04;12.60;;;4.20;;
54923;SDS011;40825;52.270;20.984;2022-11-11T13:39:36;9.50;;;4.50;;
54923;SDS011;40825;52.270;20.984;2022-11-11T13:42:05;9.20;;;3.60;;
54923;SDS011;40825;52.270;20.984;2022-11-11T13:44:43;9.10;;;3.80;;
54923;SDS011;40825;52.270;20.984;2022-11-11T13:47:16;10.90;;;4.00;;
54923;SDS011;40825;52.270;20.984;2022-11-11T13:49:45;10.60;;;3.80;;
54923;SDS011;40825;52.270;20.984;2022-11-11T13:52:23;7.60;;;3.60;;
54923;SDS011;40825;52.270;20.984;2022-11-11T13:54:57;8.90;;;3.40;;
54923;SDS011;40825;52.270;20.984;2022-11-11T13:57:30;9.60;;;3.80;;
54923;SDS011;40825;52.270;20.984;2022-11-11T14:00:03;8.90;;;3.80;;
54923;SDS011;40825;52.270;20.984;2022-11-11T14:02:34;10.20;;;3.70;;
54923;SDS011;40825;52.270;20.984;2022-11-11T14:12:47;9.10;;;4.60;;
54923;SDS011;40825;52.270;20.984;2022-11-11T14:17:57;9.50;;;4.40;;
54923;SDS011;40825;52.270;20.984;2022-11-11T14:25:46;11.10;;;5.20;;
54923;SDS011;40825;52.270;20.984;2022-11-11T14:28:21;11.50;;;6.00;;
54923;SDS011;40825;52.270;20.984;2022-11-11T14:30:48;12.30;;;5.50;;
54923;SDS011;40825;52.270;20.984;2022-11-11T14:41:43;12.10;;;6.20;;
54923;SDS011;40825;52.270;20.984;2022-11-11T14:44:36;12.20;;;6.10;;
54923;SDS011;40825;52.270;20.984;2022-11-11T15:00:46;12.30;;;6.40;;
54923;SDS011;40825;52.270;20.984;2022-11-11T15:08:25;12.00;;;6.30;;
54923;SDS011;40825;52.270;20.984;2022-11-11T15:14:02;11.80;;;5.80;;
54923;SDS011;40825;52.270;20.984;2022-11-11T15:19:49;12.40;;;6.10;;
54923;SDS011;40825;52.270;20.984;2022-11-11T15:24:48;9.90;;;5.30;;
54923;SDS011;40825;52.270;20.984;2022-11-11T15:27:43;12.90;;;6.30;;
54923;SDS011;40825;52.270;20.984;2022-11-11T15:30:15;10.80;;;5.30;;
54923;SDS011;40825;52.270;20.984;2022-11-11T15:33:00;11.90;;;6.10;;
54923;SDS011;40825;52.270;20.984;2022-11-11T15:38:57;13.20;;;6.30;;
54923;SDS011;40825;52.270;20.984;2022-11-11T15:41:28;12.80;;;6.40;;
54923;SDS011;40825;52.270;20.984;2022-11-11T15:44:05;11.90;;;6.20;;
54923;SDS011;40825;52.270;20.984;2022-11-11T15:46:41;10.80;;;5.80;;
54923;SDS011;40825;52.270;20.984;2022-11-11T15:49:13;11.70;;;6.10;;
54923;SDS011;40825;52.270;20.984;2022-11-11T15:51:59;10.10;;;5.70;;
54923;SDS011;40825;52.270;20.984;2022-11-11T15:54:25;13.70;;;6.60;;
54923;SDS011;40825;52.270;20.984;2022-11-11T15:56:50;11.50;;;6.30;;
54923;SDS011;40825;52.270;20.984;2022-11-11T15:59:27;12.10;;;5.90;;
54923;SDS011;40825;52.270;20.984;2022-11-11T16:02:06;15.80;;;6.40;;
54923;SDS011;40825;52.270;20.984;2022-11-11T16:04:38;12.50;;;6.20;;
54923;SDS011;40825;52.270;20.984;2022-11-11T16:07:26;13.80;;;5.80;;
54923;SDS011;40825;52.270;20.984;2022-11-11T16:09:57;12.50;;;5.60;;
54923;SDS011;40825;52.270;20.984;2022-11-11T16:12:34;15.70;;;7.10;;
54923;SDS011;40825;52.270;20.984;2022-11-11T16:15:18;12.90;;;6.50;;
54923;SDS011;40825;52.270;20.984;2022-11-11T16:18:00;13.50;;;6.40;;
54923;SDS011;40825;52.270;20.984;2022-11-11T16:20:33;11.40;;;5.40;;
54923;SDS011;40825;52.270;20.984;2022-11-11T16:23:05;11.50;;;5.70;;
54923;SDS011;40825;52.270;20.984;2022-11-11T16:25:32;12.60;;;7.00;;
54923;SDS011;40825;52.270;20.984;2022-11-11T16:27:58;13.80;;;6.20;;
54923;SDS011;40825;52.270;20.984;2022-11-11T16:32:57;12.20;;;5.70;;
54923;SDS011;40825;52.270;20.984;2022-11-11T16:35:39;13.90;;;6.40;;
54923;SDS011;40825;52.270;20.984;2022-11-11T16:38:04;14.20;;;5.70;;
54923;SDS011;40825;52.270;20.984;2022-11-11T16:40:34;12.60;;;5.40;;
54923;SDS011;40825;52.270;20.984;2022-11-11T16:45:47;13.10;;;6.10;;
54923;SDS011;40825;52.270;20.984;2022-11-11T16:48:32;13.30;;;6.10;;
54923;SDS011;40825;52.270;20.984;2022-11-11T16:51:07;13.60;;;5.90;;
54923;SDS011;40825;52.270;20.984;2022-11-11T16:53:37;12.80;;;5.80;;
54923;SDS011;40825;52.270;20.984;2022-11-11T16:56:07;14.50;;;5.90;;
54923;SDS011;40825;52.270;20.984;2022-11-11T16:58:41;13.20;;;6.40;;
54923;SDS011;40825;52.270;20.984;2022-11-11T17:01:07;11.70;;;6.10;;
54923;SDS011;40825;52.270;20.984;2022-11-11T17:03:32;15.30;;;6.00;;
54923;SDS011;40825;52.270;20.984;2022-11-11T17:05:59;14.60;;;6.30;;
54923;SDS011;40825;52.270;20.984;2022-11-11T17:08:39;16.10;;;6.90;;
54923;SDS011;40825;52.270;20.984;2022-11-11T17:11:10;14.40;;;6.30;;